Wetterdaten: aktuell Montag, 04.05.2026 13:47
Datum Zeit Temp. A. Feuchte A. Luftdruck Regen Wind Richtung Richtung Taupunkt Windchill
04.05.2026 13:47 24,1 °C 22 % 1005,8 hPa 0,0 l/m² 4,8 km/h (1 Bft) N-NO±45° 25 ° 1,1 °C 24,1 °C
04.05.2026 13:45 24,1 °C 22 % 1005,8 hPa 0,0 l/m² 3,7 km/h (1 Bft) N-NW±22.5° 340 ° 1,1 °C 24,1 °C
04.05.2026 13:43 24,1 °C 22 % 1005,8 hPa 0,0 l/m² 3,7 km/h (1 Bft) N-NW±22.5° 340 ° 1,1 °C 24,1 °C
04.05.2026 13:41 24,1 °C 22 % 1005,8 hPa 0,0 l/m² 0,7 km/h (0 Bft) O-NO±67.5° 65 ° 1,1 °C 24,1 °C
04.05.2026 13:39 24,1 °C 21 % 1005,8 hPa 0,0 l/m² 5,8 km/h (2 Bft) SO 140 ° 0,4 °C 24,1 °C
04.05.2026 13:37 24,1 °C 21 % 1005,8 hPa 0,0 l/m² 6,6 km/h (2 Bft) O 85 ° 0,4 °C 24,1 °C
04.05.2026 13:35 24,1 °C 20 % 1005,8 hPa 0,0 l/m² 6,6 km/h (2 Bft) O 85 ° -0,3 °C 24,1 °C
04.05.2026 13:33 24,2 °C 20 % 1005,8 hPa 0,0 l/m² 6,8 km/h (2 Bft) N-NW±22.5° 330 ° -0,2 °C 24,1 °C
04.05.2026 13:31 24,2 °C 20 % 1005,8 hPa 0,0 l/m² 4,4 km/h (1 Bft) N±22.5° 355 ° -0,2 °C 24,2 °C
04.05.2026 13:29 24,2 °C 20 % 1005,8 hPa 0,0 l/m² 2,1 km/h (1 Bft) NO±67.5° 35 ° -0,2 °C 24,2 °C
04.05.2026 13:27 24,2 °C 20 % 1005,8 hPa 0,0 l/m² 2,1 km/h (1 Bft) NO±67.5° 35 ° -0,2 °C 24,2 °C
04.05.2026 13:25 24,2 °C 20 % 1005,8 hPa 0,0 l/m² 0,3 km/h (0 Bft) N 350 ° -0,2 °C 24,2 °C
04.05.2026 13:23 24,3 °C 20 % 1005,8 hPa 0,0 l/m² 5,0 km/h (1 Bft) O 100 ° -0,1 °C 24,3 °C
04.05.2026 13:21 24,4 °C 20 % 1005,8 hPa 0,0 l/m² 5,0 km/h (1 Bft) O 100 ° -0,0 °C 24,4 °C
04.05.2026 13:18 24,4 °C 20 % 1005,8 hPa 0,0 l/m² 9,2 km/h (2 Bft) S-SO±67.5° 165 ° -0,0 °C 23,7 °C
04.05.2026 13:16 24,4 °C 20 % 1005,8 hPa 0,0 l/m² 8,5 km/h (2 Bft) SO±45° 125 ° -0,0 °C 23,8 °C
04.05.2026 13:15 24,3 °C 21 % 1005,8 hPa 0,0 l/m² 8,1 km/h (2 Bft) SO±22.5° 140 ° 0,6 °C 23,8 °C
04.05.2026 13:13 24,3 °C 21 % 1005,8 hPa 0,0 l/m² 8,1 km/h (2 Bft) SO±22.5° 140 ° 0,6 °C 23,8 °C
04.05.2026 13:11 24,2 °C 20 % 1005,8 hPa 0,0 l/m² 9,6 km/h (2 Bft) SO±45° 135 ° -0,2 °C 23,4 °C
04.05.2026 13:09 24,0 °C 21 % 1005,8 hPa 0,0 l/m² 5,0 km/h (1 Bft) SO±45° 140 ° 0,3 °C 24,0 °C
04.05.2026 13:07 24,0 °C 21 % 1005,8 hPa 0,0 l/m² 11,7 km/h (2 Bft) SO±67.5° 140 ° 0,3 °C 22,7 °C
04.05.2026 13:05 24,0 °C 20 % 1005,8 hPa 0,0 l/m² 11,7 km/h (2 Bft) SO±67.5° 140 ° -0,3 °C 22,7 °C
04.05.2026 13:03 23,9 °C 21 % 1005,8 hPa 0,0 l/m² 6,9 km/h (2 Bft) SO±45° 135 ° 0,2 °C 23,8 °C
04.05.2026 13:01 23,9 °C 21 % 1005,8 hPa 0,0 l/m² 0,0 km/h (0 Bft) S-SO 150 ° 0,2 °C 23,9 °C
04.05.2026 12:59 23,8 °C 21 % 1005,8 hPa 0,0 l/m² 0,0 km/h (0 Bft) S-SO 150 ° 0,2 °C 23,8 °C
04.05.2026 12:57 23,8 °C 22 % 1005,8 hPa 0,0 l/m² 4,1 km/h (1 Bft) SO±67.5° 125 ° 0,8 °C 23,8 °C
04.05.2026 12:55 23,6 °C 21 % 1005,8 hPa 0,0 l/m² 0,9 km/h (0 Bft) O±67.5° 90 ° -0,0 °C 23,6 °C
04.05.2026 12:53 23,6 °C 21 % 1005,8 hPa 0,0 l/m² 5,9 km/h (2 Bft) O-SO 115 ° -0,0 °C 23,6 °C
04.05.2026 12:51 23,5 °C 22 % 1005,9 hPa 0,0 l/m² 5,9 km/h (2 Bft) O-SO 115 ° 0,6 °C 23,5 °C
04.05.2026 12:49 23,3 °C 23 % 1005,9 hPa 0,0 l/m² 4,5 km/h (1 Bft) SO±22.5° 130 ° 1,0 °C 23,3 °C
04.05.2026 12:47 23,3 °C 23 % 1005,9 hPa 0,0 l/m² 0,6 km/h (0 Bft) O 95 ° 1,0 °C 23,3 °C
04.05.2026 12:45 23,3 °C 23 % 1005,9 hPa 0,0 l/m² 5,5 km/h (1 Bft) O-SO±22.5° 115 ° 1,0 °C 23,3 °C
04.05.2026 12:43 23,2 °C 23 % 1005,9 hPa 0,0 l/m² 5,5 km/h (1 Bft) O-SO±22.5° 115 ° 0,9 °C 23,2 °C
04.05.2026 12:41 23,2 °C 23 % 1005,9 hPa 0,0 l/m² 7,6 km/h (2 Bft) SO±22.5° 130 ° 0,9 °C 22,8 °C
04.05.2026 12:39 23,0 °C 24 % 1005,9 hPa 0,0 l/m² 5,2 km/h (1 Bft) SO±45° 130 ° 1,3 °C 23,0 °C
04.05.2026 12:36 22,8 °C 25 % 1005,9 hPa 0,0 l/m² 5,2 km/h (1 Bft) SO±45° 130 ° 1,7 °C 22,8 °C
04.05.2026 12:35 22,8 °C 25 % 1005,9 hPa 0,0 l/m² 6,7 km/h (2 Bft) O-SO 115 ° 1,7 °C 22,7 °C
04.05.2026 12:33 22,7 °C 24 % 1005,9 hPa 0,0 l/m² 3,7 km/h (1 Bft) O-SO 115 ° 1,1 °C 22,7 °C
04.05.2026 12:31 22,7 °C 26 % 1005,9 hPa 0,0 l/m² 9,9 km/h (2 Bft) SO±22.5° 135 ° 2,2 °C 21,6 °C
04.05.2026 12:29 22,7 °C 26 % 1005,9 hPa 0,0 l/m² 9,9 km/h (2 Bft) SO±22.5° 135 ° 2,2 °C 21,6 °C
04.05.2026 12:27 22,5 °C 27 % 1005,9 hPa 0,0 l/m² 9,9 km/h (2 Bft) SO±22.5° 135 ° 2,6 °C 21,4 °C
_ Min-Zeit 06:05 13:05 13:16 - 00:01 - - 13:05 06:05
Minimum _ 12,9 °C 20 % 1005,8 hPa - 0,0 km/h (0 Bft) - - -0,3 °C 12,9 °C
_ Max-Zeit 13:16 06:47 06:19 00:01 13:05 - - 07:59 13:21
Maximum _ 24,4 °C 58 % 1007,3 hPa 0,0 l/m² 11,7 km/h
SO (2 Bft)
- - 4,9 °C 24,4 °C
Durchschnitt _ 17,4 °C 39 % 1006,7 hPa #0,0 l/m² 1,3 km/h (1 Bft) SO - 2,8 °C 17,4 °C